Погода Зеленый Долна неделю

Оренбургская область, Россия

20 - 26 июня
  • 20июня
    Сегодня
    +14°
    +27°
    Практически безоблачно
    ВремяПогодаТемператураВлажностьДавлениеВетер, м/сВероятность осадков
    02:00Ясно и безоблачно+19°C78 %729 мм3.7 м/с2 %
    05:00Практически безоблачно+17°C93 %730 мм3.2 м/с3 %
    08:00Облачно с прояснениями+19°C81 %730 мм4.9 м/с7 %
    11:00Практически безоблачно+22°C67 %729 мм5.0 м/с17 %
    14:00Практически безоблачно+25°C46 %729 мм6.2 м/с16 %
    17:00Ясно и безоблачно+27°C41 %729 мм5.3 м/с3 %
    20:00Ясно и безоблачно+25°C47 %728 мм3.4 м/с2 %
    23:00Небольшая облачность+19°C51 %728 мм3.5 м/с2 %
  • 21июня
    Пятница
    +16°
    +30°
    Ясно и безоблачно
    ВремяПогодаТемператураВлажностьДавлениеВетер, м/сВероятность осадков
    02:00Ясно и безоблачно+16°C63 %727 мм2.5 м/с2 %
    05:00Ясно и безоблачно+14°C74 %727 мм2.3 м/с2 %
    08:00Ясно и безоблачно+19°C65 %727 мм1.8 м/с2 %
    11:00Ясно и безоблачно+25°C43 %728 мм3.7 м/с2 %
    14:00Ясно и безоблачно+28°C39 %727 мм3.9 м/с9 %
    17:00Ясно и безоблачно+30°C39 %727 мм3.4 м/с15 %
    20:00Облачно с прояснениями+28°C56 %726 мм1.2 м/с12 %
    23:00Практически безоблачно+21°C71 %726 мм2.2 м/с3 %
  • 22июня
    Суббота
    +15°
    +29°
    Небольшая облачность
    ВремяПогодаТемператураВлажностьДавлениеВетер, м/сВероятность осадков
    02:00Ясно и безоблачно+18°C80 %726 мм1.9 м/с2 %
    05:00Ясно и безоблачно+16°C87 %726 мм1.5 м/с2 %
    08:00Ясно и безоблачно+23°C74 %726 мм1.7 м/с3 %
    11:00Ясно и безоблачно+27°C52 %727 мм1.5 м/с6 %
    14:00Небольшая облачность+29°C43 %726 мм0.9 м/с31 %
    17:00Небольшая облачность, ливень+28°C57 %726 мм1.2 м/с46 %
    20:00Практически безоблачно+22°C81 %726 мм3.8 м/с38 %
    23:00Ясно и безоблачно+18°C93 %726 мм1.6 м/с24 %
  • 23июня
    Воскресенье
    +12°
    +23°
    Пасмурно, дожди с грозами
    ВремяПогодаТемператураВлажностьДавлениеВетер, м/сВероятность осадков
    02:00Облачно с прояснениями+17°C96 %725 мм2.4 м/с10 %
    05:00Облачно с прояснениями+16°C96 %725 мм2.2 м/с21 %
    08:00Облачно с прояснениями+20°C89 %725 мм1.5 м/с30 %
    11:00Облачно с прояснениями+22°C68 %724 мм2.1 м/с43 %
    14:00Пасмурно, дожди с грозами+19°C81 %725 мм4.3 м/с67 %
    17:00Пасмурно, дожди с грозами+21°C76 %724 мм3.3 м/с69 %
    20:00Пасмурно, дожди с грозами+18°C91 %725 мм4.3 м/с55 %
    23:00Пасмурно, дожди с грозами+16°C93 %725 мм4.2 м/с24 %
Мы используем cookies
Соглашаюсь